MCI weather

Kansas City International Airport
Kansas City, Missouri, United States

Public forecast

Using degrees Fahrenheit for public forecast. Weather courtesy of forecast.io.

Current aviation weather report (METAR) for Kansas City International Airport

Retrieved 2019/12/05 20:53 UTC (1 hour ago):

KMCI 052053Z 00000KT 10SM CLR 13/03 A2984 RMK AO2 SLP106 T01330033 56020

Aviation forecast (TAF) for Kansas City International Airport

Retrieved 2019/12/05 18:22 UTC (4 hours ago):

TAF KMCI 051720Z 0518/0618 18006KT P6SM SCT200 FM060000 36004KT P6SM BKN120 FM061000 36015KT P6SM SCT025 BKN040